Time;durP1;ratioP1;P1;durP2;ratioP2;P2;SDS_P1;SDS_P2;PMS_P1;PMS_P2;Temp;Humidity;BMP_temperature;BMP_pressure;BME280_temperature;BME280_humidity;BME280_pressure;Samples;Min_cycle;Max_cycle;Signal;HPM_P1;HPM_P2
2024/01/05 00:01:58;;;;;;;6.90;2.10;;;;;;;;;;5027560;28;20044;-64
2024/01/05 00:04:25;;;;;;;5.13;2.00;;;;;;;;;;5061884;28;20060;-63
2024/01/05 00:06:54;;;;;;;9.25;1.67;;;;;;;;;;5065033;28;20040;-63
2024/01/05 00:09:22;;;;;;;7.20;1.45;;;;;;;;;;5057539;28;20048;-63
2024/01/05 00:11:52;;;;;;;7.28;2.10;;;;;;;;;;5048266;28;20060;-63
2024/01/05 00:14:18;;;;;;;7.25;1.83;;;;;;;;;;5072677;28;20067;-63
2024/01/05 00:16:47;;;;;;;7.40;1.95;;;;;;;;;;5058751;28;20067;-63
2024/01/05 00:19:15;;;;;;;9.40;2.22;;;;;;;;;;5051634;28;20052;-63
2024/01/05 00:21:43;;;;;;;11.05;1.90;;;;;;;;;;5040637;28;20064;-63
2024/01/05 00:24:10;;;;;;;10.57;2.13;;;;;;;;;;5036885;28;20045;-63
2024/01/05 00:26:41;;;;;;;7.45;2.15;;;;;;;;;;5055742;28;20041;-63
2024/01/05 00:29:09;;;;;;;9.10;2.38;;;;;;;;;;5052068;28;20130;-64
2024/01/05 00:31:34;;;;;;;8.77;2.30;;;;;;;;;;5042587;28;20075;-64
2024/01/05 00:34:01;;;;;;;8.13;1.75;;;;;;;;;;5034285;28;20044;-62
2024/01/05 00:36:28;;;;;;;5.93;2.35;;;;;;;;;;5054667;28;20044;-64
2024/01/05 00:38:57;;;;;;;5.03;1.75;;;;;;;;;;5047418;28;20053;-64
2024/01/05 00:41:24;;;;;;;8.48;1.80;;;;;;;;;;5044670;28;20058;-64
2024/01/05 00:43:51;;;;;;;8.60;2.03;;;;;;;;;;5039934;28;20144;-65
2024/01/05 00:46:19;;;;;;;5.78;1.60;;;;;;;;;;5054866;28;20061;-64
2024/01/05 00:48:46;;;;;;;6.18;1.70;;;;;;;;;;5042944;28;20114;-63
2024/01/05 00:51:12;;;;;;;5.35;1.55;;;;;;;;;;5059344;28;20057;-64
2024/01/05 00:53:42;;;;;;;8.65;1.90;;;;;;;;;;5033127;28;21513;-64
2024/01/05 00:56:09;;;;;;;5.05;1.40;;;;;;;;;;5057830;28;20063;-64
2024/01/05 00:58:36;;;;;;;6.68;1.98;;;;;;;;;;5053975;28;20157;-63
2024/01/05 01:01:06;;;;;;;6.85;1.85;;;;;;;;;;5052857;28;20155;-62
2024/01/05 01:03:34;;;;;;;8.90;1.83;;;;;;;;;;5045970;28;20108;-63
2024/01/05 01:06:01;;;;;;;9.32;2.45;;;;;;;;;;5048021;28;20068;-62
2024/01/05 01:08:27;;;;;;;9.13;2.15;;;;;;;;;;5051721;28;20076;-62
2024/01/05 01:10:54;;;;;;;6.45;2.63;;;;;;;;;;5043095;28;20041;-62
2024/01/05 01:13:20;;;;;;;7.25;1.95;;;;;;;;;;5044123;28;20125;-63
2024/01/05 01:15:47;;;;;;;11.43;2.15;;;;;;;;;;5040633;28;20048;-63
2024/01/05 01:18:14;;;;;;;7.05;1.80;;;;;;;;;;5040343;28;20045;-63
2024/01/05 01:20:42;;;;;;;5.90;2.13;;;;;;;;;;5065557;28;20076;-63
2024/01/05 01:23:08;;;;;;;4.88;1.73;;;;;;;;;;5036532;28;20085;-62
2024/01/05 01:25:35;;;;;;;3.67;1.50;;;;;;;;;;5041951;28;20072;-63
2024/01/05 01:28:02;;;;;;;6.97;1.48;;;;;;;;;;5069627;28;20083;-62
2024/01/05 01:30:29;;;;;;;5.40;2.03;;;;;;;;;;5043057;28;20601;-62
2024/01/05 01:32:56;;;;;;;12.13;1.67;;;;;;;;;;5047047;28;20122;-63
2024/01/05 01:35:25;;;;;;;10.88;2.08;;;;;;;;;;5028470;28;20120;-63
2024/01/05 01:37:53;;;;;;;7.43;1.58;;;;;;;;;;5030466;28;20057;-63
2024/01/05 01:40:19;;;;;;;9.07;2.03;;;;;;;;;;5040360;28;21435;-64
2024/01/05 01:42:47;;;;;;;12.48;2.20;;;;;;;;;;5043916;28;20138;-63
2024/01/05 01:45:14;;;;;;;13.35;3.25;;;;;;;;;;5016935;28;20150;-65
2024/01/05 01:47:42;;;;;;;6.25;2.42;;;;;;;;;;5035881;28;20110;-63
2024/01/05 01:50:10;;;;;;;4.90;1.53;;;;;;;;;;5025482;28;20041;-62
2024/01/05 01:52:38;;;;;;;6.07;1.83;;;;;;;;;;5038236;28;20132;-63
2024/01/05 01:55:07;;;;;;;4.97;1.65;;;;;;;;;;5047177;28;20059;-62
2024/01/05 01:57:35;;;;;;;5.95;1.58;;;;;;;;;;5053858;28;20060;-61
2024/01/05 02:00:02;;;;;;;5.18;1.70;;;;;;;;;;5055624;28;20052;-62
2024/01/05 02:02:30;;;;;;;10.88;1.90;;;;;;;;;;5044656;28;20064;-61
2024/01/05 02:05:19;;;;;;;3.65;1.30;;;;;;;;;;5047585;28;20048;-65
2024/01/05 02:07:46;;;;;;;9.70;1.58;;;;;;;;;;5050379;28;20051;-64
2024/01/05 02:10:14;;;;;;;8.20;1.50;;;;;;;;;;5049293;28;20061;-64
2024/01/05 02:12:40;;;;;;;6.53;1.50;;;;;;;;;;5033992;28;20067;-64
2024/01/05 02:15:08;;;;;;;6.85;1.60;;;;;;;;;;5057555;28;20102;-63
2024/01/05 02:17:35;;;;;;;6.15;1.50;;;;;;;;;;5045401;28;20286;-63
2024/01/05 02:20:03;;;;;;;7.85;1.95;;;;;;;;;;5049823;28;20075;-67
2024/01/05 02:22:31;;;;;;;8.40;1.55;;;;;;;;;;5037979;28;20087;-63
2024/01/05 02:24:59;;;;;;;7.53;1.23;;;;;;;;;;5010709;28;20038;-63
2024/01/05 02:27:26;;;;;;;;;;;;;;;;;;5012415;28;20049;-65
2024/01/05 02:29:53;;;;;;;3.83;0.98;;;;;;;;;;5019078;28;19944;-64
2024/01/05 02:32:20;;;;;;;7.05;1.17;;;;;;;;;;5016360;28;20056;-64
2024/01/05 02:34:47;;;;;;;8.55;1.67;;;;;;;;;;5015320;28;20049;-64
2024/01/05 02:37:14;;;;;;;6.97;1.15;;;;;;;;;;5006319;28;20048;-64
2024/01/05 02:39:40;;;;;;;5.93;1.40;;;;;;;;;;5013943;28;20139;-64
2024/01/05 02:42:08;;;;;;;7.93;1.38;;;;;;;;;;5012301;28;20057;-64
2024/01/05 02:44:35;;;;;;;7.47;1.45;;;;;;;;;;5026376;28;20053;-63
2024/01/05 02:47:01;;;;;;;4.13;1.30;;;;;;;;;;5010915;28;20053;-64
2024/01/05 02:49:28;;;;;;;6.57;1.17;;;;;;;;;;5026167;28;20144;-63
2024/01/05 02:51:54;;;;;;;8.57;1.10;;;;;;;;;;5020874;28;20065;-64
2024/01/05 02:54:20;;;;;;;2.65;0.75;;;;;;;;;;5035220;28;20052;-64
2024/01/05 02:56:47;;;;;;;5.07;0.93;;;;;;;;;;5027998;28;20126;-64
2024/01/05 02:59:18;;;;;;;6.00;1.02;;;;;;;;;;5035762;28;20139;-63
2024/01/05 03:01:49;;;;;;;5.78;1.30;;;;;;;;;;5040763;28;20045;-63
2024/01/05 03:04:15;;;;;;;5.57;0.93;;;;;;;;;;5029691;28;20049;-63
2024/01/05 03:06:42;;;;;;;4.13;1.00;;;;;;;;;;5032555;28;20049;-64
2024/01/05 03:09:08;;;;;;;1.08;0.73;;;;;;;;;;5037024;28;20055;-64
2024/01/05 03:11:35;;;;;;;8.18;1.08;;;;;;;;;;5027831;28;20176;-64
2024/01/05 03:14:02;;;;;;;10.95;1.67;;;;;;;;;;5028435;28;20049;-63
2024/01/05 03:16:30;;;;;;;8.50;1.42;;;;;;;;;;5015836;28;20044;-63
2024/01/05 03:18:56;;;;;;;2.58;0.68;;;;;;;;;;5023848;28;20190;-63
2024/01/05 03:21:23;;;;;;;7.18;0.90;;;;;;;;;;5018532;28;20111;-64
2024/01/05 03:23:50;;;;;;;5.78;1.35;;;;;;;;;;5021833;28;20143;-63
2024/01/05 03:26:17;;;;;;;3.25;0.88;;;;;;;;;;5047727;28;20060;-63
2024/01/05 03:28:44;;;;;;;4.68;1.00;;;;;;;;;;5035045;28;20123;-63
2024/01/05 03:31:13;;;;;;;2.50;0.88;;;;;;;;;;5034082;28;20052;-64
2024/01/05 03:33:42;;;;;;;4.97;1.00;;;;;;;;;;5028247;28;20061;-63
2024/01/05 03:36:09;;;;;;;6.28;0.98;;;;;;;;;;5051064;28;20044;-63
2024/01/05 03:38:35;;;;;;;2.78;1.00;;;;;;;;;;5045500;28;20098;-63
2024/01/05 03:41:02;;;;;;;3.35;1.00;;;;;;;;;;5054608;28;20076;-64
2024/01/05 03:43:28;;;;;;;7.60;1.13;;;;;;;;;;5051179;28;20079;-64
2024/01/05 03:45:55;;;;;;;6.25;1.13;;;;;;;;;;5045802;28;20041;-63
2024/01/05 03:48:22;;;;;;;6.10;0.90;;;;;;;;;;5047905;28;20060;-62
2024/01/05 03:50:50;;;;;;;3.30;0.95;;;;;;;;;;5053932;28;20060;-63
2024/01/05 03:53:17;;;;;;;4.07;0.90;;;;;;;;;;5049735;28;20099;-64
2024/01/05 03:55:44;;;;;;;3.35;0.70;;;;;;;;;;5047498;28;20056;-64
2024/01/05 03:58:10;;;;;;;6.35;1.05;;;;;;;;;;5047004;28;20067;-63
2024/01/05 04:00:37;;;;;;;5.00;0.95;;;;;;;;;;5057496;28;20072;-64
2024/01/05 04:03:04;;;;;;;1.33;0.60;;;;;;;;;;5051371;28;20106;-63
2024/01/05 04:05:31;;;;;;;8.35;2.00;;;;;;;;;;5035453;28;20087;-63
2024/01/05 04:07:59;;;;;;;2.47;0.73;;;;;;;;;;5045900;28;20056;-64
2024/01/05 04:10:27;;;;;;;5.15;0.68;;;;;;;;;;5056661;28;20074;-63
2024/01/05 04:12:53;;;;;;;4.18;1.38;;;;;;;;;;5050703;28;20129;-64
2024/01/05 04:15:20;;;;;;;3.83;1.00;;;;;;;;;;5049935;28;20053;-63
2024/01/05 04:17:47;;;;;;;8.15;1.23;;;;;;;;;;5051384;28;20153;-63
2024/01/05 04:20:14;;;;;;;3.75;0.90;;;;;;;;;;5045622;28;20113;-63
2024/01/05 04:22:40;;;;;;;2.58;0.82;;;;;;;;;;5058733;28;20068;-63
2024/01/05 04:25:09;;;;;;;10.38;1.02;;;;;;;;;;5047295;28;20055;-63
2024/01/05 04:27:36;;;;;;;7.70;1.10;;;;;;;;;;5050046;28;20056;-63
2024/01/05 04:30:04;;;;;;;6.00;1.02;;;;;;;;;;5053674;28;20088;-63
2024/01/05 04:32:31;;;;;;;6.00;1.10;;;;;;;;;;5056820;28;20094;-63
2024/01/05 04:34:58;;;;;;;3.58;0.77;;;;;;;;;;5043954;28;20062;-63
2024/01/05 04:37:24;;;;;;;3.05;0.82;;;;;;;;;;5048238;28;20041;-63
2024/01/05 04:39:53;;;;;;;5.88;1.35;;;;;;;;;;5045177;28;20052;-64
2024/01/05 04:42:21;;;;;;;4.15;0.77;;;;;;;;;;5073077;28;20053;-63
2024/01/05 04:44:47;;;;;;;6.68;1.00;;;;;;;;;;5052145;28;20080;-63
2024/01/05 04:47:14;;;;;;;5.90;0.95;;;;;;;;;;5055039;28;20060;-63
2024/01/05 04:49:40;;;;;;;1.88;0.75;;;;;;;;;;5049484;28;20136;-63
2024/01/05 04:52:07;;;;;;;4.88;1.20;;;;;;;;;;5053942;28;20136;-63
2024/01/05 04:54:34;;;;;;;2.90;1.05;;;;;;;;;;5046855;28;20044;-63
2024/01/05 04:57:01;;;;;;;5.38;0.90;;;;;;;;;;5050501;28;20075;-63
2024/01/05 04:59:29;;;;;;;4.70;1.15;;;;;;;;;;5052700;28;20052;-62
2024/01/05 05:01:56;;;;;;;2.35;0.90;;;;;;;;;;5060072;28;20064;-62
2024/01/05 05:04:22;;;;;;;3.28;1.00;;;;;;;;;;5044651;28;20060;-63
2024/01/05 05:06:49;;;;;;;4.70;0.82;;;;;;;;;;5056482;28;20080;-63
2024/01/05 05:09:15;;;;;;;2.00;0.73;;;;;;;;;;5046158;28;20040;-63
2024/01/05 05:11:42;;;;;;;3.97;0.90;;;;;;;;;;5049616;28;20056;-64
2024/01/05 05:14:09;;;;;;;4.40;0.80;;;;;;;;;;5031027;28;20056;-63
2024/01/05 05:16:37;;;;;;;5.28;1.13;;;;;;;;;;5045735;28;20051;-63
2024/01/05 05:19:04;;;;;;;5.00;1.30;;;;;;;;;;5056146;28;20056;-62
2024/01/05 05:21:31;;;;;;;5.95;0.90;;;;;;;;;;5044440;28;20048;-63
2024/01/05 05:23:57;;;;;;;2.22;0.90;;;;;;;;;;5037618;28;20072;-64
2024/01/05 05:26:24;;;;;;;5.60;1.05;;;;;;;;;;5039477;28;20080;-62
2024/01/05 05:28:50;;;;;;;2.55;0.65;;;;;;;;;;5030305;28;20199;-63
2024/01/05 05:31:17;;;;;;;4.15;1.02;;;;;;;;;;5052817;28;20056;-64
2024/01/05 05:33:45;;;;;;;2.53;1.05;;;;;;;;;;5041276;28;20061;-63
2024/01/05 05:36:12;;;;;;;4.65;1.05;;;;;;;;;;5059933;28;20136;-63
2024/01/05 05:38:39;;;;;;;5.70;1.17;;;;;;;;;;5054112;28;20146;-62
2024/01/05 05:41:05;;;;;;;4.05;0.98;;;;;;;;;;5064469;28;20056;-63
2024/01/05 05:43:32;;;;;;;4.88;0.82;;;;;;;;;;5051561;28;20041;-63
2024/01/05 05:45:59;;;;;;;4.80;1.02;;;;;;;;;;5037520;28;20084;-63
2024/01/05 05:48:25;;;;;;;8.02;1.00;;;;;;;;;;5040958;28;20114;-63
2024/01/05 05:50:53;;;;;;;8.77;1.05;;;;;;;;;;5052271;28;20075;-62
2024/01/05 05:53:20;;;;;;;3.58;1.00;;;;;;;;;;5056277;28;20395;-64
2024/01/05 05:55:47;;;;;;;4.32;0.65;;;;;;;;;;5047684;28;20044;-63
2024/01/05 05:58:13;;;;;;;10.10;1.75;;;;;;;;;;5033171;28;20057;-62
2024/01/05 06:00:40;;;;;;;3.78;0.70;;;;;;;;;;5055303;28;20159;-63
2024/01/05 06:03:07;;;;;;;1.67;0.63;;;;;;;;;;5012974;28;20062;-62
2024/01/05 06:05:34;;;;;;;4.78;0.90;;;;;;;;;;5003980;28;20064;-64
2024/01/05 06:08:02;;;;;;;5.97;0.82;;;;;;;;;;4988364;28;20085;-63
2024/01/05 06:10:29;;;;;;;6.85;0.73;;;;;;;;;;5003739;28;20077;-63
2024/01/05 06:12:55;;;;;;;4.32;1.30;;;;;;;;;;5006200;28;20544;-62
2024/01/05 06:15:22;;;;;;;4.28;1.30;;;;;;;;;;5005749;28;20049;-63
2024/01/05 06:17:49;;;;;;;3.30;0.90;;;;;;;;;;5005976;28;20068;-63
2024/01/05 06:20:16;;;;;;;4.07;1.25;;;;;;;;;;5016063;28;20069;-62
2024/01/05 06:22:42;;;;;;;3.03;0.90;;;;;;;;;;5018544;28;20045;-63
2024/01/05 06:25:11;;;;;;;3.47;0.98;;;;;;;;;;5013704;28;20061;-62
2024/01/05 06:27:38;;;;;;;5.60;0.95;;;;;;;;;;5017437;28;20049;-63
2024/01/05 06:30:05;;;;;;;2.85;0.80;;;;;;;;;;5007059;28;20045;-63
2024/01/05 06:32:32;;;;;;;4.18;1.25;;;;;;;;;;5014566;28;20136;-62
2024/01/05 06:34:58;;;;;;;4.78;1.20;;;;;;;;;;5007337;28;20163;-63
2024/01/05 06:37:25;;;;;;;3.63;0.77;;;;;;;;;;5013672;28;20061;-63
2024/01/05 06:39:52;;;;;;;5.15;0.73;;;;;;;;;;5005551;28;20057;-63
2024/01/05 06:42:20;;;;;;;2.17;0.95;;;;;;;;;;5008862;28;20049;-62
2024/01/05 06:44:47;;;;;;;2.97;1.02;;;;;;;;;;5004953;28;20041;-62
2024/01/05 06:47:13;;;;;;;4.03;1.00;;;;;;;;;;5002377;28;20053;-63
2024/01/05 06:49:40;;;;;;;6.05;1.10;;;;;;;;;;5011416;28;20159;-63
2024/01/05 06:52:07;;;;;;;2.95;0.60;;;;;;;;;;5011704;28;20049;-62
2024/01/05 06:54:34;;;;;;;3.38;0.95;;;;;;;;;;5015064;28;20142;-62
2024/01/05 06:57:00;;;;;;;4.13;1.20;;;;;;;;;;5011029;28;20061;-63
2024/01/05 06:59:30;;;;;;;6.20;0.90;;;;;;;;;;5011020;28;20049;-63
2024/01/05 07:01:58;;;;;;;5.53;1.40;;;;;;;;;;5012793;28;20103;-63
2024/01/05 07:04:25;;;;;;;3.00;0.82;;;;;;;;;;5017664;28;20048;-63
2024/01/05 07:06:51;;;;;;;3.53;0.85;;;;;;;;;;5034061;28;20297;-62
2024/01/05 07:09:18;;;;;;;10.07;0.80;;;;;;;;;;5032842;28;20049;-63
2024/01/05 07:11:44;;;;;;;1.48;0.50;;;;;;;;;;5032422;28;20151;-64
2024/01/05 07:14:11;;;;;;;2.05;0.80;;;;;;;;;;5027534;28;20068;-63
2024/01/05 07:16:39;;;;;;;5.85;0.68;;;;;;;;;;5026750;28;20059;-63
2024/01/05 07:19:06;;;;;;;5.43;2.00;;;;;;;;;;5037862;28;20179;-63
2024/01/05 07:21:34;;;;;;;1.23;0.70;;;;;;;;;;5021401;28;20172;-64
2024/01/05 07:24:00;;;;;;;1.50;0.47;;;;;;;;;;5016599;28;20060;-62
2024/01/05 07:26:27;;;;;;;1.30;0.45;;;;;;;;;;5044348;28;20143;-63
2024/01/05 07:28:54;;;;;;;1.77;0.68;;;;;;;;;;5038394;28;20045;-64
2024/01/05 07:31:23;;;;;;;2.08;0.75;;;;;;;;;;5037763;28;20076;-62
2024/01/05 07:33:52;;;;;;;2.35;0.88;;;;;;;;;;5029693;28;20049;-63
2024/01/05 07:36:18;;;;;;;7.07;0.60;;;;;;;;;;5050185;28;20053;-63
2024/01/05 07:38:45;;;;;;;0.85;0.50;;;;;;;;;;5026534;28;20123;-63
2024/01/05 07:41:15;;;;;;;1.20;0.45;;;;;;;;;;5038269;28;20135;-63
2024/01/05 07:43:42;;;;;;;1.10;0.60;;;;;;;;;;5025145;28;20072;-63
2024/01/05 07:46:09;;;;;;;1.95;0.80;;;;;;;;;;5032736;28;20072;-63
2024/01/05 07:48:40;;;;;;;2.55;0.63;;;;;;;;;;5042427;28;20257;-62
2024/01/05 07:51:08;;;;;;;2.58;0.80;;;;;;;;;;5031794;28;20064;-63
2024/01/05 07:53:35;;;;;;;1.38;0.52;;;;;;;;;;5031801;28;20060;-63
2024/01/05 07:56:02;;;;;;;1.77;0.52;;;;;;;;;;5021422;28;20053;-64
2024/01/05 07:58:29;;;;;;;1.95;0.47;;;;;;;;;;5028937;28;20055;-63
2024/01/05 08:00:55;;;;;;;1.85;0.40;;;;;;;;;;5009605;28;20065;-62
2024/01/05 08:03:22;;;;;;;3.53;0.40;;;;;;;;;;4994110;28;20054;-63
2024/01/05 08:05:49;;;;;;;1.73;0.38;;;;;;;;;;5012478;28;20140;-63
2024/01/05 08:08:17;;;;;;;0.47;0.40;;;;;;;;;;5007198;28;20065;-64
2024/01/05 08:10:44;;;;;;;1.95;0.47;;;;;;;;;;5003682;28;20064;-62
2024/01/05 08:13:10;;;;;;;1.20;0.40;;;;;;;;;;5009938;28;20064;-63
2024/01/05 08:15:37;;;;;;;2.58;0.60;;;;;;;;;;5007045;28;20073;-63
2024/01/05 08:18:05;;;;;;;0.98;0.43;;;;;;;;;;4998791;28;20276;-62
2024/01/05 08:20:32;;;;;;;2.70;0.63;;;;;;;;;;5014172;28;20069;-63
2024/01/05 08:23:00;;;;;;;1.15;0.55;;;;;;;;;;5008134;28;20319;-62
2024/01/05 08:25:29;;;;;;;1.15;0.70;;;;;;;;;;5012233;28;20077;-63
2024/01/05 08:27:55;;;;;;;1.23;0.35;;;;;;;;;;5014939;28;20077;-63
2024/01/05 08:30:22;;;;;;;0.93;0.40;;;;;;;;;;5014554;28;20107;-64
2024/01/05 08:32:54;;;;;;;1.25;0.25;;;;;;;;;;5017081;28;20111;-65
2024/01/05 08:35:21;;;;;;;0.30;0.30;;;;;;;;;;5011608;28;20058;-62
2024/01/05 08:37:53;;;;;;;0.55;0.30;;;;;;;;;;4995663;28;20140;-63
2024/01/05 08:40:22;;;;;;;0.85;0.50;;;;;;;;;;4995789;28;20082;-63
2024/01/05 08:42:50;;;;;;;;;;;;;;;;;;5000131;28;20536;-63
2024/01/05 08:45:18;;;;;;;1.55;0.50;;;;;;;;;;4999814;28;19922;-64
2024/01/05 08:47:45;;;;;;;1.50;0.60;;;;;;;;;;5012421;28;20081;-63
2024/01/05 08:50:12;;;;;;;1.83;0.45;;;;;;;;;;5002733;28;20112;-63
2024/01/05 08:52:39;;;;;;;0.68;0.50;;;;;;;;;;4998237;28;20079;-62
2024/01/05 08:55:07;;;;;;;3.85;0.30;;;;;;;;;;5005354;28;20148;-63
2024/01/05 08:57:34;;;;;;;1.45;0.63;;;;;;;;;;5008561;28;20205;-63
2024/01/05 09:00:02;;;;;;;1.13;0.60;;;;;;;;;;4995894;28;20050;-62
2024/01/05 09:02:28;;;;;;;0.98;0.70;;;;;;;;;;5026176;28;20057;-63
2024/01/05 09:04:55;;;;;;;1.83;0.68;;;;;;;;;;5041333;28;20118;-63
2024/01/05 09:07:21;;;;;;;0.68;0.32;;;;;;;;;;5038667;28;20053;-63
2024/01/05 09:09:48;;;;;;;3.00;0.63;;;;;;;;;;5035982;28;20102;-62
2024/01/05 09:12:14;;;;;;;1.40;0.50;;;;;;;;;;5026047;28;22772;-64
2024/01/05 09:14:41;;;;;;;1.58;0.60;;;;;;;;;;5002968;28;20065;-63
2024/01/05 09:17:09;;;;;;;1.33;0.77;;;;;;;;;;5035932;28;20083;-64
2024/01/05 09:19:36;;;;;;;2.85;0.57;;;;;;;;;;5024297;28;20104;-64
2024/01/05 09:22:03;;;;;;;0.63;0.30;;;;;;;;;;5028228;28;20057;-64
2024/01/05 09:24:29;;;;;;;0.30;0.30;;;;;;;;;;5031902;28;20052;-64
2024/01/05 09:26:56;;;;;;;0.90;0.55;;;;;;;;;;5019811;28;20061;-64
2024/01/05 09:29:23;;;;;;;1.65;0.40;;;;;;;;;;5030616;28;20072;-63
2024/01/05 09:31:50;;;;;;;0.30;0.30;;;;;;;;;;5024006;28;20056;-63
2024/01/05 09:34:21;;;;;;;0.60;0.47;;;;;;;;;;5020651;28;20211;-63
2024/01/05 09:36:47;;;;;;;0.20;0.20;;;;;;;;;;5033454;28;20146;-64
2024/01/05 09:39:15;;;;;;;1.05;0.75;;;;;;;;;;5027766;28;20073;-64
2024/01/05 09:41:42;;;;;;;0.70;0.35;;;;;;;;;;5034204;28;20087;-64
2024/01/05 09:44:11;;;;;;;1.95;0.32;;;;;;;;;;5017088;28;20049;-65
2024/01/05 09:46:40;;;;;;;1.23;0.22;;;;;;;;;;5031151;28;20185;-64
2024/01/05 09:49:08;;;;;;;0.30;0.30;;;;;;;;;;5024267;28;20060;-63
2024/01/05 09:51:37;;;;;;;0.93;0.40;;;;;;;;;;5040081;28;20045;-64
2024/01/05 09:54:04;;;;;;;0.20;0.20;;;;;;;;;;5017450;28;20069;-65
2024/01/05 09:56:32;;;;;;;1.88;0.90;;;;;;;;;;5034107;28;20052;-63
2024/01/05 09:59:00;;;;;;;3.17;0.90;;;;;;;;;;5050884;28;20064;-63
2024/01/05 10:01:28;;;;;;;0.80;0.40;;;;;;;;;;5038221;28;20403;-64
2024/01/05 10:03:56;;;;;;;3.33;0.63;;;;;;;;;;5032889;28;20069;-64
2024/01/05 10:06:26;;;;;;;1.10;0.38;;;;;;;;;;5034788;28;20067;-64
2024/01/05 10:08:55;;;;;;;0.50;0.50;;;;;;;;;;5039364;28;20368;-63
2024/01/05 10:11:29;;;;;;;0.77;0.40;;;;;;;;;;5039679;28;20109;-63
2024/01/05 10:14:00;;;;;;;1.25;0.40;;;;;;;;;;5030393;28;20056;-64
2024/01/05 10:16:34;;;;;;;0.47;0.40;;;;;;;;;;5061678;28;20131;-63
2024/01/05 10:19:10;;;;;;;0.32;0.32;;;;;;;;;;5048666;28;20065;-65
2024/01/05 10:21:37;;;;;;;0.80;0.45;;;;;;;;;;5057282;28;20114;-63
2024/01/05 10:24:14;;;;;;;0.60;0.30;;;;;;;;;;5024671;28;20120;-63
2024/01/05 10:26:42;;;;;;;5.70;0.65;;;;;;;;;;5022540;28;20065;-63
2024/01/05 10:29:13;;;;;;;1.05;0.47;;;;;;;;;;5013594;28;20056;-63
2024/01/05 10:31:40;;;;;;;0.80;0.52;;;;;;;;;;5013960;28;20491;-63
2024/01/05 10:34:08;;;;;;;0.82;0.50;;;;;;;;;;5031870;28;20048;-62
2024/01/05 10:36:35;;;;;;;1.52;0.50;;;;;;;;;;5036827;28;20095;-64
2024/01/05 10:39:03;;;;;;;1.15;0.68;;;;;;;;;;5022592;28;20061;-63
2024/01/05 10:41:31;;;;;;;0.90;0.45;;;;;;;;;;5028152;28;20044;-63
2024/01/05 10:43:59;;;;;;;1.10;0.60;;;;;;;;;;5048366;28;20095;-63
2024/01/05 10:46:26;;;;;;;1.33;0.70;;;;;;;;;;5056458;28;20149;-63
2024/01/05 10:48:54;;;;;;;0.68;0.47;;;;;;;;;;5055271;28;20130;-63
2024/01/05 10:51:22;;;;;;;4.47;0.65;;;;;;;;;;5047391;28;20060;-63
2024/01/05 10:53:50;;;;;;;0.68;0.50;;;;;;;;;;5049285;28;20084;-63
2024/01/05 10:56:19;;;;;;;0.60;0.60;;;;;;;;;;5053341;28;20056;-62
2024/01/05 10:58:50;;;;;;;0.82;0.55;;;;;;;;;;5047474;28;20191;-63
2024/01/05 11:01:20;;;;;;;0.40;0.40;;;;;;;;;;5038085;28;20079;-62
2024/01/05 11:03:53;;;;;;;0.50;0.50;;;;;;;;;;5036749;28;20337;-62
2024/01/05 11:06:20;;;;;;;1.40;0.80;;;;;;;;;;5036686;28;20162;-62
2024/01/05 11:09:01;;;;;;;1.92;0.80;;;;;;;;;;5051493;28;20056;-62
2024/01/05 11:11:36;;;;;;;0.88;0.50;;;;;;;;;;5043945;28;20044;-62
2024/01/05 11:14:20;;;;;;;0.95;0.60;;;;;;;;;;5044239;28;20061;-62
2024/01/05 11:17:07;;;;;;;0.88;0.63;;;;;;;;;;5050619;28;20456;-62
2024/01/05 11:19:50;;;;;;;0.90;0.70;;;;;;;;;;5043404;28;20080;-62
2024/01/05 11:22:22;;;;;;;2.92;0.65;;;;;;;;;;5050977;28;20063;-63
2024/01/05 11:24:50;;;;;;;0.80;0.70;;;;;;;;;;5046086;28;20085;-62
2024/01/05 11:27:31;;;;;;;2.90;0.80;;;;;;;;;;5046625;28;20148;-62
2024/01/05 11:30:00;;;;;;;0.88;0.60;;;;;;;;;;5049670;28;20305;-63
2024/01/05 11:32:32;;;;;;;1.23;0.60;;;;;;;;;;5041529;28;20049;-63
2024/01/05 11:35:00;;;;;;;1.63;0.70;;;;;;;;;;5035125;28;20056;-63
2024/01/05 11:37:31;;;;;;;0.98;0.57;;;;;;;;;;5050091;28;20111;-62
2024/01/05 11:39:59;;;;;;;4.63;0.75;;;;;;;;;;5045297;28;20102;-64
2024/01/05 11:42:31;;;;;;;0.70;0.60;;;;;;;;;;5048410;28;20053;-63
2024/01/05 11:45:00;;;;;;;1.02;0.80;;;;;;;;;;5023887;28;20079;-63
2024/01/05 11:47:40;;;;;;;1.23;0.63;;;;;;;;;;5054124;28;20163;-64
2024/01/05 11:50:30;;;;;;;1.30;0.50;;;;;;;;;;5069860;28;20040;-63
2024/01/05 11:53:14;;;;;;;0.65;0.60;;;;;;;;;;5035670;28;20197;-62
2024/01/05 11:55:47;;;;;;;0.75;0.60;;;;;;;;;;5048211;28;20067;-62
2024/01/05 11:58:17;;;;;;;1.23;0.60;;;;;;;;;;5049227;28;20049;-63
2024/01/05 12:00:48;;;;;;;0.43;0.43;;;;;;;;;;5048660;28;20076;-62
2024/01/05 12:03:16;;;;;;;0.43;0.43;;;;;;;;;;5044985;28;20056;-62
2024/01/05 12:05:43;;;;;;;1.23;0.70;;;;;;;;;;5050969;28;20110;-63
2024/01/05 12:08:11;;;;;;;1.95;0.98;;;;;;;;;;5047665;28;20059;-63
2024/01/05 12:10:38;;;;;;;0.68;0.57;;;;;;;;;;5055639;28;20072;-63
2024/01/05 12:13:06;;;;;;;0.68;0.60;;;;;;;;;;5058902;28;20157;-64
2024/01/05 12:15:33;;;;;;;0.75;0.52;;;;;;;;;;5026248;28;20132;-63
2024/01/05 12:18:07;;;;;;;1.63;0.80;;;;;;;;;;5049593;28;20057;-63
2024/01/05 12:20:34;;;;;;;1.65;0.55;;;;;;;;;;5055011;28;20067;-64
2024/01/05 12:23:01;;;;;;;1.23;0.65;;;;;;;;;;5049326;28;20106;-64
2024/01/05 12:25:28;;;;;;;1.83;0.80;;;;;;;;;;5056556;28;20060;-63
2024/01/05 12:27:55;;;;;;;1.15;0.75;;;;;;;;;;5051869;28;20053;-63
2024/01/05 12:30:23;;;;;;;1.00;0.70;;;;;;;;;;5050266;28;20105;-63
2024/01/05 12:32:50;;;;;;;1.20;0.80;;;;;;;;;;5057870;28;20060;-64
2024/01/05 12:35:20;;;;;;;1.42;0.73;;;;;;;;;;5050052;28;20052;-64
2024/01/05 12:37:51;;;;;;;1.17;0.88;;;;;;;;;;5050734;28;20056;-64
2024/01/05 12:40:23;;;;;;;1.10;0.80;;;;;;;;;;5058029;28;20052;-65
2024/01/05 12:42:51;;;;;;;1.10;0.90;;;;;;;;;;5061088;28;20082;-64
2024/01/05 12:45:18;;;;;;;1.52;0.90;;;;;;;;;;5033455;28;20048;-64
2024/01/05 12:47:45;;;;;;;2.67;0.82;;;;;;;;;;5046745;28;20118;-64
2024/01/05 12:50:24;;;;;;;1.35;0.80;;;;;;;;;;5036991;28;21178;-63
2024/01/05 12:52:51;;;;;;;3.53;1.02;;;;;;;;;;5047565;28;20068;-63
2024/01/05 12:55:27;;;;;;;4.50;0.90;;;;;;;;;;5040444;28;20053;-63
2024/01/05 12:57:55;;;;;;;1.70;0.88;;;;;;;;;;5039079;28;20105;-63
2024/01/05 13:00:25;;;;;;;1.38;0.80;;;;;;;;;;5053228;28;20542;-63
2024/01/05 13:02:53;;;;;;;1.25;0.85;;;;;;;;;;5050525;28;20071;-63
2024/01/05 13:05:29;;;;;;;1.58;0.80;;;;;;;;;;5034172;28;20056;-63
2024/01/05 13:07:57;;;;;;;1.58;0.90;;;;;;;;;;5046006;28;20053;-63
2024/01/05 13:10:25;;;;;;;2.53;1.10;;;;;;;;;;5053099;28;20056;-62
2024/01/05 13:12:52;;;;;;;1.98;0.90;;;;;;;;;;5035755;28;20183;-63
2024/01/05 13:15:18;;;;;;;2.55;1.13;;;;;;;;;;5044716;28;20049;-63
2024/01/05 13:17:46;;;;;;;3.47;0.93;;;;;;;;;;5045655;28;20072;-63
2024/01/05 13:20:13;;;;;;;1.33;0.82;;;;;;;;;;5033980;28;20140;-63
2024/01/05 13:22:42;;;;;;;2.85;1.10;;;;;;;;;;5057226;28;20125;-64
2024/01/05 13:25:11;;;;;;;2.10;0.90;;;;;;;;;;5050698;28;20059;-63
2024/01/05 13:27:40;;;;;;;2.47;1.30;;;;;;;;;;5041909;28;20049;-64
2024/01/05 13:30:09;;;;;;;1.33;0.90;;;;;;;;;;5052405;28;20297;-63
2024/01/05 13:32:37;;;;;;;1.58;1.08;;;;;;;;;;5052544;28;20057;-64
2024/01/05 13:35:04;;;;;;;2.08;1.23;;;;;;;;;;5038668;28;20058;-64
2024/01/05 13:37:31;;;;;;;1.60;1.20;;;;;;;;;;5052089;28;20049;-63
2024/01/05 13:39:59;;;;;;;3.75;1.27;;;;;;;;;;5051161;28;20145;-64
2024/01/05 13:42:27;;;;;;;1.88;1.30;;;;;;;;;;5048584;28;20071;-64
2024/01/05 13:44:54;;;;;;;4.72;1.40;;;;;;;;;;5044840;28;20061;-65
2024/01/05 13:47:21;;;;;;;2.90;1.55;;;;;;;;;;5052232;28;20112;-64
2024/01/05 13:49:47;;;;;;;1.67;1.15;;;;;;;;;;5058938;28;20056;-64
2024/01/05 13:52:14;;;;;;;3.58;1.80;;;;;;;;;;5044760;28;20059;-64
2024/01/05 13:54:41;;;;;;;3.65;2.10;;;;;;;;;;5049474;28;20057;-64
2024/01/05 13:57:09;;;;;;;4.35;1.98;;;;;;;;;;5053220;28;20144;-63
2024/01/05 13:59:35;;;;;;;2.95;1.67;;;;;;;;;;5059096;28;20110;-64
2024/01/05 14:02:03;;;;;;;4.53;1.90;;;;;;;;;;5049352;28;20059;-65
2024/01/05 14:04:30;;;;;;;2.60;1.57;;;;;;;;;;5045640;28;20056;-64
2024/01/05 14:06:57;;;;;;;3.65;1.95;;;;;;;;;;5055286;28;20048;-63
2024/01/05 14:09:24;;;;;;;3.78;1.92;;;;;;;;;;5050337;28;20041;-64
2024/01/05 14:11:51;;;;;;;3.53;1.85;;;;;;;;;;5043060;28;20085;-64
2024/01/05 14:14:19;;;;;;;4.55;2.30;;;;;;;;;;5031533;28;20052;-63
2024/01/05 14:16:46;;;;;;;3.97;2.05;;;;;;;;;;5060474;28;20131;-64
2024/01/05 14:19:12;;;;;;;2.95;1.90;;;;;;;;;;5061191;28;20278;-63
2024/01/05 14:21:39;;;;;;;4.63;2.40;;;;;;;;;;5052870;28;20148;-63
2024/01/05 14:24:07;;;;;;;2.85;1.65;;;;;;;;;;5034366;28;20147;-64
2024/01/05 14:26:36;;;;;;;7.05;3.40;;;;;;;;;;5048452;28;20140;-63
2024/01/05 14:29:04;;;;;;;2.05;1.25;;;;;;;;;;5054648;28;20056;-64
2024/01/05 14:31:34;;;;;;;5.35;2.17;;;;;;;;;;5057663;28;20052;-64
2024/01/05 14:34:01;;;;;;;4.10;2.08;;;;;;;;;;5053106;28;20052;-64
2024/01/05 14:36:28;;;;;;;3.72;2.17;;;;;;;;;;5059157;28;20110;-64
2024/01/05 14:38:55;;;;;;;4.05;2.20;;;;;;;;;;5062252;28;20048;-64
2024/01/05 14:41:22;;;;;;;5.95;2.58;;;;;;;;;;5056782;28;20534;-64
2024/01/05 14:43:49;;;;;;;4.00;2.28;;;;;;;;;;4999776;28;20058;-64
2024/01/05 14:46:16;;;;;;;6.22;2.60;;;;;;;;;;5029759;28;20056;-64
2024/01/05 14:48:45;;;;;;;7.13;2.47;;;;;;;;;;5058030;28;20110;-63